Time;durP1;ratioP1;P1;durP2;ratioP2;P2;SDS_P1;SDS_P2;PMS_P1;PMS_P2;Temp;Humidity;BMP_temperature;BMP_pressure;BME280_temperature;BME280_humidity;BME280_pressure;Samples;Min_cycle;Max_cycle;Signal;HPM_P1;HPM_P2
2022/08/02 00:02:11;;;;;;;6.50;1.60;;;18.90;98.20;;;;;;5090459;28;20542;-68
2022/08/02 00:04:38;;;;;;;4.40;1.40;;;18.60;97.10;;;;;;5114878;28;20181;-68
2022/08/02 00:07:05;;;;;;;5.50;1.60;;;18.70;98.40;;;;;;5107012;28;20207;-68
2022/08/02 00:09:33;;;;;;;6.30;1.20;;;19.10;97.60;;;;;;5094223;28;20198;-68
2022/08/02 00:12:00;;;;;;;1.80;0.93;;;19.60;92.40;;;;;;5106946;28;20642;-67
2022/08/02 00:14:27;;;;;;;1.63;0.80;;;19.30;90.00;;;;;;5091490;28;20235;-68
2022/08/02 00:16:55;;;;;;;1.27;0.90;;;19.50;87.70;;;;;;5086985;28;20268;-68
2022/08/02 00:19:22;;;;;;;2.50;0.90;;;19.50;81.40;;;;;;5089717;28;20214;-69
2022/08/02 00:21:50;;;;;;;3.60;1.20;;;19.40;83.00;;;;;;5105402;28;20539;-68
2022/08/02 00:24:17;;;;;;;3.77;1.10;;;19.30;89.40;;;;;;5114573;28;20532;-68
2022/08/02 00:26:44;;;;;;;3.97;1.07;;;20.20;88.90;;;;;;5114238;28;20278;-68
2022/08/02 00:29:12;;;;;;;4.27;1.27;;;20.30;76.60;;;;;;5114475;28;20787;-68
2022/08/02 00:31:39;;;;;;;4.07;1.50;;;19.70;77.70;;;;;;5100565;28;20247;-68
2022/08/02 00:34:06;;;;;;;3.97;1.00;;;19.90;82.30;;;;;;5094017;28;20963;-68
2022/08/02 00:36:34;;;;;;;2.20;0.87;;;20.00;85.80;;;;;;5094068;28;20175;-69
2022/08/02 00:39:01;;;;;;;2.70;0.90;;;20.40;80.70;;;;;;5111942;28;20190;-68
2022/08/02 00:41:28;;;;;;;4.10;0.90;;;20.70;78.70;;;;;;5102242;28;20185;-69
2022/08/02 00:43:57;;;;;;;4.70;0.80;;;20.80;78.40;;;;;;5093792;28;20554;-69
2022/08/02 00:46:24;;;;;;;4.13;1.10;;;21.20;72.70;;;;;;5093763;28;20179;-68
2022/08/02 00:48:54;;;;;;;1.87;0.70;;;21.50;68.30;;;;;;5110089;28;20185;-69
2022/08/02 00:51:22;;;;;;;4.33;1.10;;;21.20;65.80;;;;;;5114094;28;20190;-69
2022/08/02 00:53:49;;;;;;;2.17;1.07;;;21.50;62.50;;;;;;5096014;28;20175;-68
2022/08/02 00:56:16;;;;;;;4.07;1.10;;;22.20;63.10;;;;;;5093546;28;20677;-69
2022/08/02 00:58:44;;;;;;;3.57;0.90;;;22.60;62.00;;;;;;5095859;28;20216;-67
2022/08/02 01:01:11;;;;;;;3.53;1.27;;;22.30;59.80;;;;;;5110067;28;20175;-68
2022/08/02 01:03:38;;;;;;;3.37;0.80;;;22.10;58.00;;;;;;5092840;28;20175;-67
2022/08/02 01:06:06;;;;;;;3.77;1.00;;;22.10;59.20;;;;;;5093308;28;20197;-69
2022/08/02 01:08:33;;;;;;;2.10;0.70;;;21.70;58.80;;;;;;5093406;28;20235;-67
2022/08/02 01:11:01;;;;;;;2.13;0.80;;;21.90;59.30;;;;;;5093235;28;20633;-67
2022/08/02 01:13:28;;;;;;;1.73;0.90;;;21.90;58.10;;;;;;5093442;28;20163;-66
2022/08/02 01:16:03;;;;;;;6.03;0.90;;;22.10;59.80;;;;;;5093343;28;20611;-67
2022/08/02 01:18:44;;;;;;;2.93;1.00;;;22.70;58.50;;;;;;5093307;28;20732;-71
2022/08/02 01:21:38;;;;;;;2.03;0.70;;;23.20;55.90;;;;;;5093131;28;20189;-67
2022/08/02 01:24:57;;;;;;;3.77;0.93;;;23.30;53.70;;;;;;5093017;28;20309;-67
2022/08/02 01:27:51;;;;;;;3.17;0.90;;;22.40;51.30;;;;;;5067466;28;20188;-69
2022/08/02 01:30:19;;;;;;;2.63;0.67;;;22.50;51.20;;;;;;5092916;28;20232;-66
2022/08/02 01:32:57;;;;;;;2.57;0.63;;;22.80;53.50;;;;;;5091494;28;20233;-69
2022/08/02 01:35:36;;;;;;;2.10;0.87;;;22.50;48.80;;;;;;5093060;28;20175;-69
2022/08/02 01:38:19;;;;;;;4.13;1.10;;;22.50;51.70;;;;;;5101052;28;20198;-68
2022/08/02 01:40:47;;;;;;;3.67;0.73;;;22.20;49.60;;;;;;5113021;28;20206;-69
2022/08/02 01:43:16;;;;;;;14.00;1.23;;;22.40;48.50;;;;;;5113090;28;20175;-69
2022/08/02 01:45:46;;;;;;;1.73;0.63;;;22.30;50.30;;;;;;5099355;28;20191;-68
2022/08/02 01:48:15;;;;;;;4.83;1.17;;;22.50;48.70;;;;;;5111072;28;20264;-70
2022/08/02 01:50:46;;;;;;;2.33;0.67;;;22.80;47.40;;;;;;5112976;28;20269;-66
2022/08/02 01:53:18;;;;;;;3.40;0.70;;;22.50;45.80;;;;;;5109726;28;20247;-69
2022/08/02 01:55:49;;;;;;;2.10;0.63;;;22.00;47.00;;;;;;5092540;28;20265;-68
2022/08/02 01:58:19;;;;;;;3.73;0.83;;;22.00;47.40;;;;;;5092167;28;20210;-65
2022/08/02 02:00:47;;;;;;;2.20;0.60;;;22.60;46.20;;;;;;5073961;28;20284;-70
2022/08/02 02:03:21;;;;;;;3.47;0.73;;;22.50;44.10;;;;;;5092339;28;20171;-65
2022/08/02 02:05:50;;;;;;;3.23;0.80;;;22.60;43.30;;;;;;5092200;28;20182;-68
2022/08/02 02:08:27;;;;;;;4.70;0.97;;;22.40;45.70;;;;;;5092223;28;20186;-69
2022/08/02 02:10:56;;;;;;;1.13;0.70;;;22.10;47.10;;;;;;5095440;28;20197;-67
2022/08/02 02:13:26;;;;;;;0.93;0.47;;;22.00;46.60;;;;;;5112380;28;20272;-70
2022/08/02 02:15:54;;;;;;;1.70;0.60;;;22.30;45.20;;;;;;5095231;28;20267;-67
2022/08/02 02:18:25;;;;;;;2.37;0.70;;;22.50;42.30;;;;;;5092039;28;20261;-69
2022/08/02 02:20:53;;;;;;;1.27;0.57;;;23.20;45.30;;;;;;5091934;28;20211;-69
2022/08/02 02:23:21;;;;;;;4.90;0.67;;;22.90;42.70;;;;;;5091989;28;20179;-67
2022/08/02 02:25:49;;;;;;;1.50;0.93;;;23.70;41.60;;;;;;5092039;28;20182;-70
2022/08/02 02:28:29;;;;;;;2.20;0.70;;;23.00;41.60;;;;;;5106103;28;20186;-68
2022/08/02 02:31:12;;;;;;;4.20;0.70;;;22.30;39.70;;;;;;5101884;28;20182;-69
2022/08/02 02:34:16;;;;;;;3.07;1.07;;;22.00;43.30;;;;;;5091881;28;20240;-69
2022/08/02 02:36:48;;;;;;;1.60;0.90;;;22.60;42.50;;;;;;5069899;28;20685;-71
2022/08/02 02:39:17;;;;;;;1.67;0.80;;;23.10;40.80;;;;;;5091668;28;20685;-66
2022/08/02 02:41:47;;;;;;;2.03;0.77;;;23.20;40.70;;;;;;5109997;28;20190;-65
2022/08/02 02:44:18;;;;;;;1.37;0.70;;;23.20;41.20;;;;;;5093558;28;20566;-66
2022/08/02 02:46:49;;;;;;;2.23;0.87;;;23.20;40.90;;;;;;5112013;28;20181;-67
2022/08/02 02:49:18;;;;;;;1.07;0.70;;;22.40;39.60;;;;;;5111553;28;20182;-68
2022/08/02 02:51:47;;;;;;;1.53;0.90;;;21.90;41.20;;;;;;5108426;28;20182;-66
2022/08/02 02:54:16;;;;;;;3.13;1.47;;;22.10;41.10;;;;;;5091546;28;20657;-66
2022/08/02 02:56:44;;;;;;;6.77;1.80;;;22.20;41.10;;;;;;5091440;28;20171;-68
2022/08/02 02:59:14;;;;;;;2.83;0.60;;;22.30;43.30;;;;;;5091475;28;20289;-67
2022/08/02 03:01:41;;;;;;;2.60;0.70;;;22.50;41.60;;;;;;5091473;28;20193;-65
2022/08/02 03:04:10;;;;;;;2.10;0.83;;;22.20;39.60;;;;;;5091385;28;20553;-68
2022/08/02 03:06:39;;;;;;;1.77;0.70;;;22.30;46.00;;;;;;5091489;28;20179;-66
2022/08/02 03:09:07;;;;;;;7.10;1.10;;;22.60;42.00;;;;;;5105896;28;20188;-66
2022/08/02 03:11:38;;;;;;;2.53;1.20;;;22.00;41.80;;;;;;5113763;28;20173;-67
2022/08/02 03:14:10;;;;;;;2.13;0.70;;;22.30;43.40;;;;;;5116029;28;20231;-65
2022/08/02 03:16:48;;;;;;;2.77;0.80;;;22.50;41.90;;;;;;5100437;28;20183;-66
2022/08/02 03:19:16;;;;;;;9.20;1.53;;;22.10;43.20;;;;;;5095429;28;20219;-67
2022/08/02 03:21:45;;;;;;;4.70;1.13;;;22.20;42.80;;;;;;5095494;28;20258;-65
2022/08/02 03:24:14;;;;;;;2.13;0.87;;;22.10;44.80;;;;;;5095202;28;20217;-66
2022/08/02 03:26:42;;;;;;;2.07;0.83;;;22.70;44.40;;;;;;5095602;28;20178;-65
2022/08/02 03:29:09;;;;;;;2.00;0.70;;;23.20;43.60;;;;;;5095331;28;20725;-65
2022/08/02 03:31:40;;;;;;;1.20;0.70;;;23.30;40.90;;;;;;5095180;28;20215;-64
2022/08/02 03:34:08;;;;;;;4.10;0.73;;;23.20;39.00;;;;;;5095243;28;20589;-65
2022/08/02 03:36:36;;;;;;;2.93;0.63;;;23.60;40.00;;;;;;5106174;28;20182;-66
2022/08/02 03:39:05;;;;;;;3.73;0.73;;;23.70;38.10;;;;;;5082805;28;20685;-65
2022/08/02 03:41:35;;;;;;;3.23;0.70;;;23.80;38.80;;;;;;5095038;28;20179;-65
2022/08/02 03:44:03;;;;;;;1.87;0.60;;;23.50;36.70;;;;;;5094847;28;20244;-65
2022/08/02 03:46:32;;;;;;;4.47;0.80;;;22.70;37.50;;;;;;5095068;28;20534;-64
2022/08/02 03:49:00;;;;;;;2.07;0.80;;;22.60;39.90;;;;;;5094765;28;20174;-64
2022/08/02 03:51:28;;;;;;;2.63;0.80;;;22.40;39.90;;;;;;5094830;28;20190;-65
2022/08/02 03:53:56;;;;;;;0.77;0.57;;;22.70;41.20;;;;;;5094820;28;20652;-64
2022/08/02 03:56:23;;;;;;;1.17;0.63;;;22.70;39.60;;;;;;5094960;28;20677;-65
2022/08/02 03:59:04;;;;;;;3.07;0.80;;;22.80;41.50;;;;;;5094636;28;20609;-65
2022/08/02 04:01:31;;;;;;;1.80;0.90;;;22.90;40.10;;;;;;5095628;28;20194;-65
2022/08/02 04:03:58;;;;;;;1.80;0.50;;;23.20;40.10;;;;;;5094542;28;20203;-65
2022/08/02 04:06:26;;;;;;;1.67;0.90;;;23.20;39.60;;;;;;5094586;28;20182;-64
2022/08/02 04:08:53;;;;;;;2.33;0.80;;;23.10;38.60;;;;;;5094539;28;20171;-65
2022/08/02 04:11:32;;;;;;;3.57;0.87;;;23.30;39.80;;;;;;5094519;28;20249;-66
2022/08/02 04:14:06;;;;;;;2.97;0.73;;;23.50;39.20;;;;;;5094477;28;20198;-65
2022/08/02 04:16:46;;;;;;;5.77;0.80;;;23.50;40.10;;;;;;5094591;28;20182;-66
2022/08/02 04:19:30;;;;;;;4.80;1.30;;;23.40;40.20;;;;;;5094319;28;20586;-65
2022/08/02 04:22:06;;;;;;;3.80;0.87;;;23.00;37.90;;;;;;5094164;28;20175;-65
2022/08/02 04:24:56;;;;;;;4.07;0.70;;;22.90;39.30;;;;;;5094119;28;20175;-66
2022/08/02 04:27:25;;;;;;;1.63;0.83;;;22.60;37.50;;;;;;5095379;28;20270;-65
2022/08/02 04:29:53;;;;;;;1.93;0.80;;;22.50;38.70;;;;;;5091276;28;20206;-66
2022/08/02 04:32:21;;;;;;;3.07;0.63;;;22.70;39.30;;;;;;5109411;28;20211;-69
2022/08/02 04:34:49;;;;;;;1.73;0.77;;;22.70;39.30;;;;;;5101043;28;20270;-68
2022/08/02 04:37:16;;;;;;;0.93;0.50;;;22.60;40.30;;;;;;5112339;28;20197;-67
2022/08/02 04:39:43;;;;;;;2.40;0.80;;;22.60;42.10;;;;;;5106749;28;20660;-68
2022/08/02 04:42:19;;;;;;;3.20;0.53;;;22.50;38.20;;;;;;5093870;28;20182;-68
2022/08/02 04:44:46;;;;;;;1.37;0.67;;;22.40;38.50;;;;;;5093788;28;20232;-69
2022/08/02 04:47:14;;;;;;;3.67;0.90;;;22.40;40.20;;;;;;5093918;28;20642;-69
2022/08/02 04:49:41;;;;;;;1.13;0.73;;;22.50;40.00;;;;;;5094124;28;20182;-69
2022/08/02 04:52:09;;;;;;;3.17;0.90;;;22.40;37.60;;;;;;5094160;28;20220;-71
2022/08/02 04:54:36;;;;;;;4.60;1.10;;;22.30;36.50;;;;;;5093910;28;20167;-67
2022/08/02 04:57:53;;;;;;;2.40;0.90;;;22.40;36.60;;;;;;5112194;28;20188;-69
2022/08/02 04:59:51;;;;;;;0.97;0.60;;;22.20;35.50;;;;;;5113827;28;20268;-69
2022/08/02 05:02:18;;;;;;;2.00;0.97;;;22.10;34.00;;;;;;5101192;28;20183;-70
2022/08/02 05:04:46;;;;;;;1.40;0.90;;;22.00;33.40;;;;;;5093555;28;20183;-68
2022/08/02 05:07:13;;;;;;;1.60;0.70;;;21.60;33.80;;;;;;5093585;28;20182;-69
2022/08/02 05:09:40;;;;;;;2.07;0.70;;;21.40;32.40;;;;;;5093545;28;20269;-69
2022/08/02 05:12:08;;;;;;;0.97;0.57;;;21.50;32.70;;;;;;5093362;28;20599;-68
2022/08/02 05:14:35;;;;;;;0.67;0.50;;;21.70;31.10;;;;;;5104024;28;20282;-68
2022/08/02 05:17:03;;;;;;;3.57;0.60;;;21.60;30.10;;;;;;5093342;28;20178;-71
2022/08/02 05:19:30;;;;;;;2.27;0.47;;;21.60;29.70;;;;;;5092934;28;20615;-69
2022/08/02 05:21:57;;;;;;;2.03;0.60;;;21.50;30.40;;;;;;5092237;28;20175;-68
2022/08/02 05:24:25;;;;;;;3.83;0.67;;;21.40;30.00;;;;;;5093047;28;20215;-69
2022/08/02 05:26:52;;;;;;;1.30;0.67;;;21.10;31.70;;;;;;5109642;28;20179;-69
2022/08/02 05:29:20;;;;;;;4.37;0.60;;;21.10;32.00;;;;;;5108444;28;20179;-69
2022/08/02 05:31:48;;;;;;;1.27;0.90;;;21.10;32.20;;;;;;5110567;28;20230;-69
2022/08/02 05:34:15;;;;;;;3.40;0.70;;;20.90;33.50;;;;;;5112437;28;20212;-67
2022/08/02 05:36:42;;;;;;;1.40;0.60;;;20.80;34.00;;;;;;5113213;28;20701;-68
2022/08/02 05:39:10;;;;;;;3.53;0.50;;;20.70;34.60;;;;;;5113421;28;20207;-68
2022/08/02 05:41:37;;;;;;;1.03;0.60;;;20.60;36.60;;;;;;5113375;28;20696;-68
2022/08/02 05:44:05;;;;;;;4.27;0.70;;;20.50;36.30;;;;;;5095918;28;20923;-67
2022/08/02 05:46:32;;;;;;;0.40;0.40;;;20.30;36.00;;;;;;5092918;28;20203;-69
2022/08/02 05:49:00;;;;;;;1.33;0.67;;;20.20;35.90;;;;;;5090810;28;20201;-69
2022/08/02 05:51:36;;;;;;;2.03;0.90;;;20.10;36.00;;;;;;5113178;28;20182;-69
2022/08/02 05:54:48;;;;;;;0.57;0.50;;;19.90;35.50;;;;;;5113012;28;20189;-68
2022/08/02 05:57:30;;;;;;;3.37;0.60;;;19.60;31.70;;;;;;5095605;28;20197;-69
2022/08/02 06:00:10;;;;;;;2.53;0.67;;;19.40;32.80;;;;;;5112522;28;20205;-69
2022/08/02 06:02:43;;;;;;;1.10;0.77;;;19.30;33.50;;;;;;5112642;28;20180;-69
2022/08/02 06:05:13;;;;;;;1.20;1.07;;;19.30;34.40;;;;;;5112746;28;20261;-69
2022/08/02 06:07:43;;;;;;;2.27;0.80;;;19.30;34.50;;;;;;5112782;28;20174;-68
2022/08/02 06:10:12;;;;;;;1.13;0.60;;;19.30;35.70;;;;;;5096564;28;20545;-70
2022/08/02 06:12:57;;;;;;;2.33;0.67;;;19.30;36.40;;;;;;5105984;28;20197;-70
2022/08/02 06:15:24;;;;;;;1.80;0.80;;;19.20;39.30;;;;;;5092515;28;20183;-69
2022/08/02 06:17:52;;;;;;;1.97;0.60;;;19.10;40.20;;;;;;5092257;28;20580;-70
2022/08/02 06:20:20;;;;;;;2.17;0.63;;;19.00;40.50;;;;;;5092138;28;20206;-69
2022/08/02 06:22:48;;;;;;;1.67;0.80;;;19.00;40.80;;;;;;5092308;28;20188;-70
2022/08/02 06:25:15;;;;;;;1.83;0.60;;;18.80;41.60;;;;;;5109303;28;20198;-68
2022/08/02 06:27:43;;;;;;;1.97;0.67;;;18.70;41.30;;;;;;5112463;28;20178;-69
2022/08/02 06:30:10;;;;;;;3.03;0.60;;;18.60;42.90;;;;;;5112396;28;20300;-69
2022/08/02 06:32:38;;;;;;;1.30;0.77;;;18.40;43.50;;;;;;5094396;28;20317;-68
2022/08/02 06:35:06;;;;;;;2.63;0.70;;;18.30;43.70;;;;;;5091869;28;20182;-69
2022/08/02 06:37:44;;;;;;;2.03;0.70;;;18.20;44.80;;;;;;5106478;28;20186;-70
2022/08/02 06:40:22;;;;;;;1.20;0.70;;;18.10;46.10;;;;;;5112276;28;20724;-70
2022/08/02 06:43:18;;;;;;;1.17;0.67;;;17.90;49.10;;;;;;5112391;28;20708;-69
2022/08/02 06:45:45;;;;;;;6.20;1.00;;;17.70;52.90;;;;;;5098020;28;20198;-70
2022/08/02 06:48:13;;;;;;;0.80;0.70;;;17.60;52.70;;;;;;5108737;28;20186;-69
2022/08/02 06:50:42;;;;;;;4.33;0.80;;;17.40;55.00;;;;;;5094506;28;20183;-68
2022/08/02 06:53:10;;;;;;;1.47;1.10;;;17.20;59.60;;;;;;5091653;28;20186;-68
2022/08/02 06:55:38;;;;;;;1.57;0.83;;;17.10;59.10;;;;;;5101379;28;20576;-69
2022/08/02 06:58:06;;;;;;;1.43;0.97;;;17.10;57.90;;;;;;5094819;28;20171;-69
2022/08/02 07:00:33;;;;;;;2.33;1.03;;;17.00;59.80;;;;;;5091594;28;20209;-69
2022/08/02 07:03:01;;;;;;;1.70;0.90;;;16.80;62.50;;;;;;5092488;28;20183;-69
2022/08/02 07:05:28;;;;;;;1.97;1.10;;;16.70;62.90;;;;;;5091531;28;20225;-69
2022/08/02 07:07:56;;;;;;;1.50;0.80;;;16.60;62.70;;;;;;5091593;28;20258;-68
2022/08/02 07:10:24;;;;;;;1.57;0.83;;;16.50;66.00;;;;;;5107327;28;20187;-68
2022/08/02 07:12:51;;;;;;;1.40;1.07;;;16.40;67.10;;;;;;5100601;28;20292;-68
2022/08/02 07:15:18;;;;;;;1.67;1.00;;;16.40;66.60;;;;;;5111901;28;20934;-69
2022/08/02 07:17:46;;;;;;;1.60;1.00;;;16.20;68.30;;;;;;5111916;28;20177;-68
2022/08/02 07:20:13;;;;;;;1.23;0.97;;;16.10;73.10;;;;;;5111787;28;20267;-69
2022/08/02 07:22:41;;;;;;;4.00;1.00;;;16.10;79.00;;;;;;5096694;28;20215;-67
2022/08/02 07:25:09;;;;;;;2.00;0.97;;;15.90;89.40;;;;;;5091212;28;20175;-68
2022/08/02 07:27:36;;;;;;;5.10;1.10;;;15.60;98.10;;;;;;5092995;28;20221;-68
2022/08/02 07:30:05;;;;;;;4.33;1.07;;;15.40;99.90;;;;;;5111620;28;20278;-68
2022/08/02 07:32:33;;;;;;;4.03;1.30;;;15.20;99.90;;;;;;5111544;28;20302;-69
2022/08/02 07:35:01;;;;;;;2.03;1.10;;;15.00;99.90;;;;;;5111561;28;20259;-69
2022/08/02 07:37:31;;;;;;;2.90;1.30;;;14.90;99.90;;;;;;5111637;28;20177;-70
2022/08/02 07:39:59;;;;;;;6.30;1.40;;;14.80;99.90;;;;;;5111451;28;20205;-69
2022/08/02 07:42:28;;;;;;;5.37;1.30;;;14.70;99.90;;;;;;5111593;28;20210;-68
2022/08/02 07:44:55;;;;;;;4.03;1.27;;;14.60;99.90;;;;;;5110540;28;20174;-67
2022/08/02 07:47:22;;;;;;;6.47;1.20;;;14.40;99.90;;;;;;5109851;28;20187;-68
2022/08/02 07:49:51;;;;;;;4.00;1.17;;;14.20;99.90;;;;;;5100196;28;20190;-68
2022/08/02 07:52:19;;;;;;;3.87;1.20;;;14.00;99.90;;;;;;5100457;28;20178;-68
2022/08/02 07:54:47;;;;;;;2.77;1.57;;;13.90;99.90;;;;;;5101760;28;20321;-68
2022/08/02 07:57:14;;;;;;;5.23;1.70;;;13.80;99.90;;;;;;5102455;28;20190;-67
2022/08/02 07:59:42;;;;;;;2.93;1.83;;;13.70;99.90;;;;;;5105612;28;20228;-69
2022/08/02 08:02:09;;;;;;;4.53;2.17;;;13.70;99.90;;;;;;5090028;28;20186;-69
2022/08/02 08:04:36;;;;;;;7.40;2.60;;;13.60;99.90;;;;;;5080690;28;20182;-68
2022/08/02 08:07:05;;;;;;;5.80;2.83;;;13.40;99.90;;;;;;5105082;28;20654;-69
2022/08/02 08:09:32;;;;;;;5.17;2.30;;;13.30;99.90;;;;;;5102744;28;20540;-68
2022/08/02 08:11:59;;;;;;;4.33;2.57;;;13.20;99.90;;;;;;5105964;28;20332;-69
2022/08/02 08:14:27;;;;;;;6.07;2.97;;;13.10;99.90;;;;;;5102389;28;20262;-68
2022/08/02 08:16:54;;;;;;;5.37;2.90;;;12.90;99.90;;;;;;5094638;28;20329;-68
2022/08/02 08:19:21;;;;;;;6.23;3.30;;;12.90;99.90;;;;;;5094532;28;20200;-69
2022/08/02 08:21:49;;;;;;;4.17;2.80;;;12.80;99.90;;;;;;5094510;28;20270;-69
2022/08/02 08:24:16;;;;;;;6.83;2.80;;;12.70;99.90;;;;;;5094366;28;20632;-68
2022/08/02 08:26:44;;;;;;;5.60;2.70;;;12.50;99.90;;;;;;5094417;28;20213;-69
2022/08/02 08:29:11;;;;;;;5.90;2.50;;;12.50;99.90;;;;;;5094367;28;20184;-68
2022/08/02 08:31:38;;;;;;;4.97;2.60;;;12.50;99.90;;;;;;5094202;28;20597;-68
2022/08/02 08:34:09;;;;;;;9.63;2.73;;;12.40;99.90;;;;;;5094350;28;20559;-69
2022/08/02 08:36:36;;;;;;;8.80;3.37;;;12.30;99.90;;;;;;5094329;28;20185;-69
2022/08/02 08:39:04;;;;;;;5.67;2.60;;;12.20;99.90;;;;;;5099413;28;20193;-69
2022/08/02 08:41:32;;;;;;;4.83;2.30;;;12.10;99.90;;;;;;5100490;28;20183;-68
2022/08/02 08:43:59;;;;;;;7.23;2.60;;;12.00;99.90;;;;;;5114529;28;20172;-69
2022/08/02 08:46:29;;;;;;;7.73;2.50;;;12.00;99.90;;;;;;5114419;28;20261;-71
2022/08/02 08:49:24;;;;;;;7.40;3.30;;;12.00;99.90;;;;;;5114403;28;20655;-69
2022/08/02 08:51:56;;;;;;;7.23;2.70;;;11.90;99.90;;;;;;5079451;28;20198;-69
2022/08/02 08:54:27;;;;;;;4.10;2.37;;;11.90;99.90;;;;;;5114263;28;20183;-69
2022/08/02 08:56:55;;;;;;;8.17;2.40;;;11.80;99.90;;;;;;5095743;28;20623;-68
2022/08/02 08:59:22;;;;;;;5.10;2.60;;;11.70;99.90;;;;;;5114067;28;20256;-68
2022/08/02 09:01:50;;;;;;;7.63;2.67;;;11.60;99.90;;;;;;5102358;28;20275;-69
2022/08/02 09:04:19;;;;;;;7.63;3.70;;;11.50;99.90;;;;;;5093496;28;20627;-70
2022/08/02 09:06:46;;;;;;;10.87;5.47;;;11.50;99.90;;;;;;5093568;28;20241;-68
2022/08/02 09:09:14;;;;;;;10.00;4.67;;;11.40;99.90;;;;;;5098651;28;20202;-69
2022/08/02 09:11:41;;;;;;;14.60;4.73;;;11.30;99.90;;;;;;5113957;28;20235;-69
2022/08/02 09:14:09;;;;;;;9.33;4.23;;;11.30;99.90;;;;;;5092105;28;20186;-69
2022/08/02 09:16:37;;;;;;;9.67;4.63;;;11.20;99.90;;;;;;5111747;28;20187;-69
2022/08/02 09:19:26;;;;;;;8.40;4.30;;;11.10;99.90;;;;;;5113660;28;20190;-69
2022/08/02 09:22:09;;;;;;;9.43;4.40;;;11.10;99.90;;;;;;5113568;28;20268;-70
2022/08/02 09:24:47;;;;;;;12.63;4.87;;;11.00;99.90;;;;;;5113680;28;20171;-70
2022/08/02 09:27:20;;;;;;;12.23;5.00;;;11.00;99.90;;;;;;5113405;28;20170;-70
2022/08/02 09:29:53;;;;;;;15.73;5.67;;;11.00;99.90;;;;;;5113640;28;20210;-70
2022/08/02 09:32:20;;;;;;;11.00;6.40;;;11.00;99.90;;;;;;5113389;28;20227;-69
2022/08/02 09:34:53;;;;;;;11.20;6.67;;;11.00;99.90;;;;;;5113535;28;20182;-69
2022/08/02 09:37:28;;;;;;;12.53;7.83;;;11.10;99.90;;;;;;5113499;28;20172;-70
2022/08/02 09:40:02;;;;;;;16.73;9.43;;;11.00;99.90;;;;;;5113419;28;20234;-70
2022/08/02 09:42:33;;;;;;;23.13;12.20;;;10.90;99.90;;;;;;5108117;28;20317;-69
2022/08/02 09:45:01;;;;;;;22.53;10.93;;;10.90;99.90;;;;;;5113165;28;20615;-69
2022/08/02 09:47:30;;;;;;;22.93;10.00;;;10.80;99.90;;;;;;5113204;28;20182;-69
2022/08/02 09:49:58;;;;;;;16.17;8.03;;;10.80;99.90;;;;;;5113191;28;20179;-71
2022/08/02 09:52:30;;;;;;;14.10;7.20;;;10.70;99.90;;;;;;5113263;28;20175;-70
2022/08/02 09:55:05;;;;;;;14.63;7.10;;;10.60;99.90;;;;;;5112775;28;20265;-69
2022/08/02 09:57:32;;;;;;;16.40;7.17;;;10.60;99.90;;;;;;5110655;28;20176;-69
2022/08/02 10:00:00;;;;;;;13.00;7.67;;;10.60;99.90;;;;;;5103427;28;20210;-69
2022/08/02 10:02:27;;;;;;;16.30;6.83;;;10.60;99.90;;;;;;5097697;28;20230;-69
2022/08/02 10:04:55;;;;;;;13.10;7.07;;;10.60;99.90;;;;;;5095156;28;20191;-68
2022/08/02 10:07:23;;;;;;;17.67;7.40;;;10.70;99.90;;;;;;5092502;28;20172;-70
2022/08/02 10:09:51;;;;;;;17.60;6.83;;;10.70;99.90;;;;;;5105218;28;20222;-69
2022/08/02 10:12:21;;;;;;;14.63;6.10;;;10.70;99.90;;;;;;5112827;28;20183;-69
2022/08/02 10:14:50;;;;;;;12.13;6.50;;;10.60;99.90;;;;;;5112911;28;20182;-68
2022/08/02 10:17:19;;;;;;;18.87;7.40;;;10.60;99.90;;;;;;5112840;28;20507;-68
2022/08/02 10:19:47;;;;;;;13.17;7.17;;;10.60;99.90;;;;;;5083155;28;20211;-69
2022/08/02 10:22:16;;;;;;;11.50;7.73;;;10.50;99.90;;;;;;5092191;28;20231;-69
2022/08/02 10:24:45;;;;;;;14.30;6.97;;;10.60;99.90;;;;;;5091845;28;20202;-69
2022/08/02 10:27:20;;;;;;;12.10;6.83;;;10.70;99.90;;;;;;5092141;28;20258;-69
2022/08/02 10:29:53;;;;;;;15.27;8.40;;;10.60;99.90;;;;;;5074014;28;20186;-70
2022/08/02 10:32:46;;;;;;;13.60;7.30;;;10.70;99.90;;;;;;5094663;28;20287;-69
2022/08/02 10:35:17;;;;;;;14.83;7.33;;;10.70;99.90;;;;;;5092096;28;20702;-69
2022/08/02 10:37:47;;;;;;;15.60;8.77;;;10.70;99.90;;;;;;5091834;28;20552;-70
2022/08/02 10:40:27;;;;;;;14.57;8.67;;;10.70;99.90;;;;;;5108219;28;20214;-70
2022/08/02 10:42:58;;;;;;;20.63;8.73;;;10.80;99.90;;;;;;5112181;28;20612;-70
2022/08/02 10:45:26;;;;;;;18.17;9.83;;;10.80;99.90;;;;;;5112152;28;20266;-69
2022/08/02 10:48:04;;;;;;;18.50;8.97;;;10.70;99.90;;;;;;5112274;28;20187;-72
2022/08/02 10:50:48;;;;;;;18.27;8.63;;;10.70;99.90;;;;;;5112376;28;20184;-70
2022/08/02 10:53:26;;;;;;;18.03;8.63;;;10.60;99.90;;;;;;5111655;28;20633;-71
2022/08/02 10:55:56;;;;;;;17.27;8.47;;;10.60;99.90;;;;;;5111967;28;20185;-70
2022/08/02 10:58:28;;;;;;;17.23;8.33;;;10.60;99.90;;;;;;5111933;28;20192;-69
2022/08/02 11:00:57;;;;;;;16.37;8.23;;;10.50;99.90;;;;;;5111991;28;20714;-69
2022/08/02 11:03:39;;;;;;;15.40;8.40;;;10.40;99.90;;;;;;5112363;28;20172;-69
2022/08/02 11:06:15;;;;;;;17.07;7.97;;;10.30;99.90;;;;;;5113148;28;20173;-69
2022/08/02 11:08:43;;;;;;;14.67;8.40;;;10.30;99.90;;;;;;5113485;28;20651;-68
2022/08/02 11:11:11;;;;;;;21.90;9.20;;;10.30;99.90;;;;;;5113231;28;20171;-69
2022/08/02 11:14:01;;;;;;;17.93;9.30;;;10.30;99.90;;;;;;5113610;28;20258;-69
2022/08/02 11:16:56;;;;;;;23.47;9.13;;;10.20;99.90;;;;;;5111747;28;20167;-69
2022/08/02 11:19:24;;;;;;;15.40;8.47;;;10.20;99.90;;;;;;5113309;28;20231;-69
2022/08/02 11:22:04;;;;;;;16.47;8.73;;;10.10;99.90;;;;;;5082919;28;20174;-69
2022/08/02 11:24:33;;;;;;;17.53;8.80;;;10.10;99.90;;;;;;5092906;28;20210;-69
2022/08/02 11:27:04;;;;;;;14.70;8.13;;;10.10;99.90;;;;;;5104587;28;20183;-70
2022/08/02 11:29:38;;;;;;;19.73;7.70;;;10.10;99.90;;;;;;5103357;28;20198;-69
2022/08/02 11:32:08;;;;;;;16.37;8.93;;;10.10;99.90;;;;;;5103808;28;20218;-69
2022/08/02 11:34:36;;;;;;;15.50;9.63;;;10.10;99.90;;;;;;5105587;28;20172;-69
2022/08/02 11:37:04;;;;;;;18.23;8.53;;;10.00;99.90;;;;;;5106662;28;20597;-71
2022/08/02 11:39:32;;;;;;;16.90;8.87;;;10.00;99.90;;;;;;5105300;28;20199;-70
2022/08/02 11:42:00;;;;;;;15.50;8.60;;;10.10;99.90;;;;;;5106943;28;20180;-71
2022/08/02 11:44:39;;;;;;;17.53;8.77;;;10.10;99.90;;;;;;5106763;28;20653;-71
2022/08/02 11:47:07;;;;;;;18.43;8.37;;;10.10;99.90;;;;;;5107157;28;20199;-72
2022/08/02 11:49:36;;;;;;;16.60;8.10;;;10.20;99.90;;;;;;5105159;28;20168;-71
2022/08/02 11:52:06;;;;;;;17.07;7.63;;;10.30;99.90;;;;;;5107330;28;20198;-70
2022/08/02 11:54:39;;;;;;;14.83;8.13;;;10.30;99.90;;;;;;5105077;28;20230;-71
2022/08/02 11:57:13;;;;;;;13.10;8.17;;;10.30;99.90;;;;;;5089721;28;20719;-72
2022/08/02 11:59:42;;;;;;;16.13;7.80;;;10.30;99.90;;;;;;5098596;28;20681;-72
2022/08/02 12:02:11;;;;;;;13.23;8.40;;;10.30;99.90;;;;;;5116915;28;20174;-70
2022/08/02 12:04:39;;;;;;;15.90;7.80;;;10.40;99.90;;;;;;5116802;28;20183;-70
2022/08/02 12:07:08;;;;;;;12.10;6.73;;;10.40;99.90;;;;;;5116543;28;20175;-73
2022/08/02 12:09:37;;;;;;;10.50;6.37;;;10.40;99.90;;;;;;5098443;28;20175;-71
2022/08/02 12:12:05;;;;;;;6.43;3.23;;;10.50;99.90;;;;;;5116658;28;20182;-71
2022/08/02 12:14:41;;;;;;;6.67;3.60;;;10.60;99.90;;;;;;5116520;28;20178;-71
2022/08/02 12:19:55;;;;;;;6.77;2.20;;;10.90;99.90;;;;;;5096393;28;20709;-71
2022/08/02 12:22:26;;;;;;;5.47;2.67;;;11.10;99.90;;;;;;5096000;28;20175;-70
2022/08/02 12:24:56;;;;;;;3.57;1.77;;;11.20;99.90;;;;;;5095997;28;20186;-70
2022/08/02 12:27:42;;;;;;;3.30;2.00;;;11.40;99.90;;;;;;5115447;28;20666;-70
2022/08/02 12:30:15;;;;;;;3.73;2.20;;;11.50;99.90;;;;;;5116341;28;20175;-70
2022/08/02 12:32:44;;;;;;;4.23;2.50;;;11.40;99.90;;;;;;5114304;28;20219;-70
2022/08/02 12:35:18;;;;;;;5.07;2.60;;;11.50;99.90;;;;;;5096635;28;20230;-70
2022/08/02 12:37:48;;;;;;;8.10;2.50;;;11.60;99.90;;;;;;5095785;28;20216;-70
2022/08/02 12:40:30;;;;;;;4.67;3.20;;;11.50;99.90;;;;;;5110858;28;20263;-71
2022/08/02 12:42:58;;;;;;;6.27;3.00;;;11.60;99.90;;;;;;5116010;28;20226;-69
2022/08/02 12:45:29;;;;;;;9.43;3.43;;;11.60;99.90;;;;;;5091261;28;20182;-71
2022/08/02 12:47:58;;;;;;;5.83;3.33;;;11.60;99.90;;;;;;5095496;28;20204;-71
2022/08/02 12:50:36;;;;;;;5.37;3.07;;;11.60;99.90;;;;;;5095285;28;20180;-70
2022/08/02 12:53:17;;;;;;;7.83;3.43;;;11.60;99.90;;;;;;5105569;28;20187;-72
2022/08/02 12:55:58;;;;;;;6.33;2.90;;;11.60;99.90;;;;;;5107077;28;20651;-70
2022/08/02 12:58:26;;;;;;;6.93;3.10;;;11.60;99.90;;;;;;5077092;28;20180;-71
2022/08/02 13:00:59;;;;;;;5.90;3.17;;;11.60;99.90;;;;;;5095097;28;20290;-70
2022/08/02 13:03:28;;;;;;;3.63;2.43;;;11.70;99.90;;;;;;5095104;28;20180;-71
2022/08/02 13:05:55;;;;;;;5.23;2.60;;;11.60;99.90;;;;;;5104461;28;20183;-71
2022/08/02 13:08:23;;;;;;;7.53;2.50;;;11.50;99.90;;;;;;5115710;28;20639;-70